createdAt,value
2019-05-03T00:00:13.511Z,11.99
2019-05-03T00:02:26.256Z,11.97
2019-05-03T00:04:38.052Z,12.00
2019-05-03T00:06:48.902Z,11.95
2019-05-03T00:09:01.574Z,11.97
2019-05-03T00:11:12.655Z,11.97
2019-05-03T00:13:23.465Z,12.01
2019-05-03T00:15:36.641Z,12.01
2019-05-03T00:17:47.594Z,12.03
2019-05-03T00:19:58.536Z,12.06
2019-05-03T00:22:09.407Z,12.02
2019-05-03T00:24:22.689Z,11.99
2019-05-03T00:26:33.583Z,11.99
2019-05-03T00:28:44.539Z,11.99
2019-05-03T00:30:55.395Z,11.94
2019-05-03T00:33:06.231Z,11.92
2019-05-03T00:35:31.954Z,11.92
2019-05-03T00:37:44.824Z,11.92
2019-05-03T00:40:06.503Z,11.92
2019-05-03T00:42:17.380Z,11.85
2019-05-03T00:44:28.218Z,11.83
2019-05-03T00:46:39.089Z,11.84
2019-05-03T00:48:49.942Z,11.83
2019-05-03T00:51:02.454Z,11.84
2019-05-03T00:53:13.554Z,11.85
2019-05-03T00:55:24.499Z,11.73
2019-05-03T00:57:35.357Z,11.74
2019-05-03T00:59:46.215Z,11.71
2019-05-03T01:01:59.145Z,11.66
2019-05-03T01:04:11.784Z,11.70
2019-05-03T01:06:22.757Z,11.73
2019-05-03T01:08:33.600Z,11.75
2019-05-03T01:10:44.457Z,11.78
2019-05-03T01:12:57.366Z,11.75
2019-05-03T01:15:13.227Z,11.80
2019-05-03T01:17:24.112Z,11.73
2019-05-03T01:19:34.963Z,11.74
2019-05-03T01:21:45.819Z,11.76
2019-05-03T01:23:56.645Z,11.77
2019-05-03T01:26:07.508Z,11.77
2019-05-03T01:28:18.373Z,11.77
2019-05-03T01:30:29.310Z,11.77
2019-05-03T01:32:41.808Z,11.80
2019-05-03T01:34:52.840Z,11.79
2019-05-03T01:37:03.892Z,11.74
2019-05-03T01:39:14.735Z,11.81
2019-05-03T01:41:25.704Z,11.78
2019-05-03T01:43:36.662Z,11.70
2019-05-03T01:45:47.633Z,11.71
2019-05-03T01:48:06.531Z,11.75
2019-05-03T01:50:19.308Z,11.82
2019-05-03T01:52:32.463Z,11.78
2019-05-03T01:54:43.486Z,11.73
2019-05-03T01:56:58.724Z,11.71
2019-05-03T01:59:07.102Z,11.69
2019-05-03T02:01:22.857Z,11.71
2019-05-03T02:03:35.614Z,11.75
2019-05-03T02:05:52.030Z,11.78
2019-05-03T02:08:03.154Z,11.70
2019-05-03T02:10:14.130Z,11.68
2019-05-03T02:14:43.273Z,11.82
2019-05-03T02:16:54.118Z,11.80
2019-05-03T02:19:05.094Z,11.79
2019-05-03T02:21:15.933Z,11.80
2019-05-03T02:23:26.907Z,11.75
2019-05-03T02:25:37.830Z,11.77
2019-05-03T02:27:48.667Z,11.74
2019-05-03T02:30:02.744Z,11.70
2019-05-03T02:32:13.178Z,11.67
2019-05-03T02:34:24.437Z,11.68
2019-05-03T02:36:35.504Z,11.67
2019-05-03T02:38:46.460Z,11.60
2019-05-03T02:40:57.393Z,11.60
2019-05-03T02:43:16.648Z,11.61
2019-05-03T02:45:29.629Z,11.59
2019-05-03T02:47:42.368Z,11.63
2019-05-03T02:49:56.234Z,11.59
2019-05-03T02:52:09.210Z,11.60
2019-05-03T02:54:20.088Z,11.58
2019-05-03T02:56:31.192Z,11.57
2019-05-03T02:58:42.003Z,11.51
2019-05-03T03:00:56.370Z,11.47
2019-05-03T03:03:07.319Z,11.49
2019-05-03T03:05:18.584Z,11.43
2019-05-03T03:07:30.436Z,11.47
2019-05-03T03:09:41.740Z,11.49
2019-05-03T03:11:55.954Z,11.49
2019-05-03T03:14:10.082Z,11.51
2019-05-03T03:16:21.063Z,11.49
2019-05-03T03:18:37.870Z,11.44
2019-05-03T03:20:51.625Z,11.42
2019-05-03T03:23:02.563Z,11.46
2019-05-03T03:25:17.574Z,11.49
2019-05-03T03:27:30.249Z,11.48
2019-05-03T03:29:42.910Z,11.47
2019-05-03T03:32:18.715Z,11.54
2019-05-03T03:34:54.511Z,11.50
2019-05-03T03:37:04.652Z,11.46
2019-05-03T03:39:11.982Z,11.44
2019-05-03T03:41:24.969Z,11.41
2019-05-03T03:43:36.487Z,11.42
2019-05-03T03:45:49.074Z,11.39
2019-05-03T03:48:00.506Z,11.40
2019-05-03T03:50:11.545Z,11.46
2019-05-03T03:52:25.490Z,11.44
2019-05-03T03:54:37.070Z,11.46
2019-05-03T03:57:02.211Z,11.44
2019-05-03T03:59:05.884Z,11.45
2019-05-03T04:01:17.008Z,11.47
2019-05-03T04:03:28.038Z,11.49
2019-05-03T04:05:39.179Z,11.47
2019-05-03T04:07:50.143Z,11.50
2019-05-03T04:10:01.296Z,11.48
2019-05-03T04:12:12.331Z,11.42
2019-05-03T04:14:27.968Z,11.40
2019-05-03T04:16:40.837Z,11.39
2019-05-03T04:18:55.098Z,11.40
2019-05-03T04:21:06.259Z,11.44
2019-05-03T04:23:17.207Z,11.49
2019-05-03T04:25:28.154Z,11.51
2019-05-03T04:27:39.923Z,11.48
2019-05-03T04:29:50.854Z,11.42
2019-05-03T04:32:06.301Z,11.43
2019-05-03T04:34:17.205Z,11.45
2019-05-03T04:36:28.132Z,11.51
2019-05-03T04:38:39.031Z,11.47
2019-05-03T04:40:50.070Z,11.46
2019-05-03T04:43:01.043Z,11.49
2019-05-03T04:45:12.017Z,11.48
2019-05-03T04:47:22.858Z,11.55
2019-05-03T04:49:36.278Z,11.58
2019-05-03T04:51:46.784Z,11.61
2019-05-03T04:54:11.518Z,11.90
2019-05-03T04:56:22.501Z,12.04
2019-05-03T04:58:36.101Z,12.09
2019-05-03T05:00:46.660Z,12.07
2019-05-03T05:02:57.770Z,12.06
2019-05-03T05:05:09.525Z,12.04
2019-05-03T05:07:20.474Z,12.02
2019-05-03T05:09:31.420Z,11.95
2019-05-03T05:11:42.319Z,11.94
2019-05-03T05:13:53.200Z,11.94
2019-05-03T05:16:05.918Z,11.94
2019-05-03T05:18:31.172Z,11.88
2019-05-03T05:20:46.915Z,11.80
2019-05-03T05:22:57.750Z,11.77
2019-05-03T05:25:10.831Z,11.81
2019-05-03T05:27:26.337Z,11.84
2019-05-03T05:29:39.085Z,11.75
2019-05-03T05:31:49.927Z,11.73
2019-05-03T05:34:00.812Z,11.73
2019-05-03T05:36:11.668Z,11.66
2019-05-03T05:38:25.582Z,11.62
2019-05-03T05:40:36.661Z,11.59
2019-05-03T05:42:47.604Z,11.54
2019-05-03T05:44:58.460Z,11.51
2019-05-03T05:47:17.193Z,11.45
2019-05-03T05:49:40.973Z,11.50
2019-05-03T05:51:51.824Z,11.46
2019-05-03T05:54:02.779Z,11.46
2019-05-03T05:56:27.801Z,11.43
2019-05-03T05:58:58.745Z,11.35
2019-05-03T06:01:25.003Z,11.25
2019-05-03T06:03:36.061Z,11.25
2019-05-03T06:05:47.032Z,11.27
2019-05-03T06:10:47.420Z,11.07
2019-05-03T06:13:00.175Z,11.04
2019-05-03T06:15:14.930Z,10.88
2019-05-03T06:17:30.798Z,10.79
2019-05-03T06:19:49.706Z,10.81
2019-05-03T06:22:20.615Z,10.81
2019-05-03T06:24:48.604Z,10.85
2019-05-03T06:27:05.047Z,10.78
2019-05-03T06:29:16.019Z,10.79
2019-05-03T06:31:28.889Z,10.77
2019-05-03T06:33:39.754Z,10.78
2019-05-03T06:35:50.636Z,10.83
2019-05-03T06:38:01.464Z,10.79
2019-05-03T06:40:14.783Z,10.79
2019-05-03T06:42:25.597Z,10.79
2019-05-03T06:44:36.542Z,10.75
2019-05-03T06:46:49.136Z,10.79
2019-05-03T06:49:01.063Z,10.82
2019-05-03T06:51:17.852Z,10.83
2019-05-03T06:53:25.551Z,10.79
2019-05-03T06:55:39.997Z,10.82
2019-05-03T06:57:49.865Z,10.89
2019-05-03T07:00:08.414Z,10.87
2019-05-03T07:02:38.021Z,10.85
2019-05-03T07:04:53.723Z,10.88
2019-05-03T07:07:06.602Z,10.92
2019-05-03T07:09:31.197Z,10.95
2019-05-03T07:11:42.045Z,11.03
2019-05-03T07:13:54.894Z,11.01
2019-05-03T07:16:05.730Z,11.01
2019-05-03T07:18:16.596Z,11.02
2019-05-03T07:20:27.534Z,11.01
2019-05-03T07:22:38.391Z,11.07
2019-05-03T07:24:49.245Z,11.00
2019-05-03T07:27:00.178Z,10.97
2019-05-03T07:29:11.059Z,10.91
2019-05-03T07:31:22.103Z,10.90
2019-05-03T07:33:34.863Z,10.89
2019-05-03T07:35:45.800Z,10.87
2019-05-03T07:37:56.675Z,10.95
2019-05-03T07:40:07.829Z,10.94
2019-05-03T07:42:18.663Z,10.91
2019-05-03T07:44:29.537Z,10.91
2019-05-03T07:46:40.502Z,10.95
2019-05-03T07:48:51.368Z,10.95
2019-05-03T07:51:02.232Z,11.03
2019-05-03T07:53:14.880Z,11.03
2019-05-03T07:55:45.705Z,11.07
2019-05-03T07:57:58.578Z,11.10
2019-05-03T08:00:10.345Z,11.14
2019-05-03T08:02:24.292Z,11.14
2019-05-03T08:04:35.911Z,11.16
2019-05-03T08:06:46.822Z,11.21
2019-05-03T08:08:57.910Z,11.24
2019-05-03T08:11:08.864Z,11.30
2019-05-03T08:13:19.829Z,11.43
2019-05-03T08:15:30.690Z,11.47
2019-05-03T08:17:41.758Z,11.62
2019-05-03T08:19:55.167Z,12.02
2019-05-03T08:22:06.378Z,12.53
2019-05-03T08:24:17.270Z,13.05
2019-05-03T08:26:28.125Z,13.28
2019-05-03T08:28:39.074Z,13.41
2019-05-03T08:30:51.856Z,13.46
2019-05-03T08:33:24.954Z,13.58
2019-05-03T08:35:37.839Z,13.68
2019-05-03T08:37:50.595Z,13.77
2019-05-03T08:40:05.156Z,13.97
2019-05-03T08:42:18.131Z,14.33
2019-05-03T08:44:29.109Z,14.45
2019-05-03T08:46:39.969Z,14.43
2019-05-03T08:48:50.830Z,14.35
2019-05-03T08:51:04.508Z,14.11
2019-05-03T08:53:15.832Z,13.93
2019-05-03T08:55:26.729Z,13.86
2019-05-03T08:57:37.684Z,13.84
2019-05-03T08:59:48.574Z,13.73
2019-05-03T09:02:03.566Z,13.71
2019-05-03T09:04:12.438Z,13.60
2019-05-03T09:06:24.803Z,13.46
2019-05-03T09:08:35.925Z,13.30
2019-05-03T09:10:48.787Z,13.29
2019-05-03T09:13:10.669Z,13.47
2019-05-03T09:15:21.824Z,13.47
2019-05-03T09:17:32.813Z,13.55
2019-05-03T09:19:45.302Z,13.61
2019-05-03T09:21:56.391Z,13.62
2019-05-03T09:24:07.358Z,13.69
2019-05-03T09:26:18.350Z,13.81
2019-05-03T09:28:29.350Z,13.76
2019-05-03T09:30:40.259Z,13.69
2019-05-03T09:32:51.107Z,13.71
2019-05-03T09:35:05.535Z,13.57
2019-05-03T09:37:16.518Z,13.42
2019-05-03T09:39:27.358Z,13.30
2019-05-03T09:41:38.314Z,13.35
2019-05-03T09:43:49.171Z,13.37
2019-05-03T09:46:00.038Z,13.38
2019-05-03T09:48:10.887Z,13.58
2019-05-03T09:50:21.848Z,13.54
2019-05-03T09:52:35.328Z,13.48
2019-05-03T09:54:47.480Z,13.34
2019-05-03T09:56:59.200Z,13.33
2019-05-03T09:59:10.062Z,13.33
2019-05-03T10:01:20.911Z,13.18
2019-05-03T10:03:31.795Z,13.18
2019-05-03T10:05:42.729Z,13.15
2019-05-03T10:07:53.609Z,13.15
2019-05-03T10:10:05.730Z,13.46
2019-05-03T10:12:18.530Z,13.73
2019-05-03T10:14:29.380Z,13.82
2019-05-03T10:16:51.424Z,13.92
2019-05-03T10:19:02.518Z,14.19
2019-05-03T10:21:14.809Z,14.39
2019-05-03T10:23:35.772Z,14.36
2019-05-03T10:25:46.701Z,14.14
2019-05-03T10:27:57.659Z,14.31
2019-05-03T10:30:12.964Z,14.43
2019-05-03T10:32:41.687Z,14.81
2019-05-03T10:34:54.338Z,15.08
2019-05-03T10:37:07.073Z,15.15
2019-05-03T10:39:17.939Z,14.77
2019-05-03T10:41:28.890Z,14.55
2019-05-03T10:43:39.868Z,14.44
2019-05-03T10:45:50.818Z,14.47
2019-05-03T10:48:01.772Z,14.51
2019-05-03T10:50:12.842Z,14.49
2019-05-03T10:52:25.849Z,14.52
2019-05-03T10:54:36.764Z,14.87
2019-05-03T10:56:49.634Z,15.32
2019-05-03T10:59:02.399Z,15.60
2019-05-03T11:01:14.852Z,15.95
2019-05-03T11:03:25.697Z,16.31
2019-05-03T11:05:36.786Z,16.16
2019-05-03T11:07:47.632Z,15.95
2019-05-03T11:09:58.588Z,15.88
2019-05-03T11:12:09.436Z,15.73
2019-05-03T11:14:20.291Z,15.46
2019-05-03T11:16:31.227Z,15.26
2019-05-03T11:18:42.159Z,14.99
2019-05-03T11:20:54.561Z,14.80
2019-05-03T11:23:06.381Z,14.72
2019-05-03T11:25:17.394Z,14.67
2019-05-03T11:27:30.139Z,14.58
2019-05-03T11:29:41.023Z,14.51
2019-05-03T11:32:08.255Z,14.73
2019-05-03T11:34:22.554Z,15.09
2019-05-03T11:36:37.941Z,15.24
2019-05-03T11:38:50.700Z,15.25
2019-05-03T11:41:01.794Z,15.45
2019-05-03T11:43:12.848Z,15.59
2019-05-03T11:45:24.624Z,15.90
2019-05-03T11:47:35.865Z,16.13
2019-05-03T11:49:46.881Z,16.20
2019-05-03T11:51:57.778Z,16.33
2019-05-03T11:54:08.619Z,16.25
2019-05-03T11:56:19.494Z,16.01
2019-05-03T11:58:30.349Z,15.90
2019-05-03T12:00:41.221Z,15.72
2019-05-03T12:02:55.614Z,15.64
2019-05-03T12:05:08.773Z,15.60
2019-05-03T12:07:38.973Z,15.81
2019-05-03T12:09:45.238Z,16.18
2019-05-03T12:11:56.326Z,16.55
2019-05-03T12:14:10.767Z,16.74
2019-05-03T12:16:48.810Z,16.67
2019-05-03T12:18:47.744Z,16.45
2019-05-03T12:20:48.498Z,16.41
2019-05-03T12:23:01.083Z,16.50
2019-05-03T12:25:14.008Z,16.64
2019-05-03T12:27:25.566Z,16.70
2019-05-03T12:29:36.524Z,16.84
2019-05-03T12:31:47.415Z,16.92
2019-05-03T12:33:58.376Z,17.07
2019-05-03T12:36:09.550Z,17.17
2019-05-03T12:38:20.610Z,17.21
2019-05-03T12:40:31.663Z,17.15
2019-05-03T12:42:42.569Z,16.84
2019-05-03T12:44:55.154Z,16.74
2019-05-03T12:47:06.289Z,16.55
2019-05-03T12:49:17.170Z,16.44
2019-05-03T12:51:28.334Z,16.33
2019-05-03T12:53:41.205Z,16.31
2019-05-03T12:55:52.175Z,16.30
2019-05-03T12:58:05.880Z,16.26
2019-05-03T13:00:31.393Z,16.21
2019-05-03T13:02:46.891Z,16.35
2019-05-03T13:04:58.039Z,16.44
2019-05-03T13:07:27.630Z,16.60
2019-05-03T13:09:38.526Z,16.72
2019-05-03T13:11:55.683Z,16.79
2019-05-03T13:14:04.805Z,16.91
2019-05-03T13:16:17.115Z,16.97
2019-05-03T13:18:28.014Z,17.10
2019-05-03T13:20:38.854Z,17.26
2019-05-03T13:22:49.684Z,17.32
2019-05-03T13:25:00.773Z,17.40
2019-05-03T13:27:11.712Z,17.34
2019-05-03T13:29:22.695Z,17.16
2019-05-03T13:31:35.431Z,16.88
2019-05-03T13:33:46.317Z,16.78
2019-05-03T13:35:57.314Z,16.69
2019-05-03T13:38:08.298Z,16.67
2019-05-03T13:40:19.237Z,16.77
2019-05-03T13:42:30.347Z,16.82
2019-05-03T13:44:41.239Z,16.74
2019-05-03T13:46:52.077Z,16.57
2019-05-03T13:49:05.387Z,16.55
2019-05-03T13:51:16.536Z,16.48
2019-05-03T13:53:27.353Z,16.48
2019-05-03T13:55:38.348Z,16.50
2019-05-03T13:57:49.211Z,16.51
2019-05-03T14:00:00.178Z,16.57
2019-05-03T14:02:15.540Z,16.55
2019-05-03T14:04:23.973Z,16.55
2019-05-03T14:06:36.621Z,16.38
2019-05-03T14:08:47.559Z,16.25
2019-05-03T14:10:58.516Z,16.17
2019-05-03T14:13:09.365Z,16.23
2019-05-03T14:15:20.415Z,16.15
2019-05-03T14:17:31.343Z,16.07
2019-05-03T14:19:42.367Z,16.07
2019-05-03T14:21:55.117Z,16.12
2019-05-03T14:24:09.555Z,16.20
2019-05-03T14:26:20.485Z,16.30
2019-05-03T14:28:31.344Z,16.27
2019-05-03T14:30:45.330Z,16.28
2019-05-03T14:32:56.254Z,16.28
2019-05-03T14:35:07.506Z,16.13
2019-05-03T14:37:18.373Z,16.06
2019-05-03T14:39:29.231Z,16.12
2019-05-03T14:41:40.120Z,16.18
2019-05-03T14:43:50.987Z,16.21
2019-05-03T14:46:01.923Z,16.21
2019-05-03T14:48:15.072Z,16.19
2019-05-03T14:50:25.751Z,16.13
2019-05-03T14:52:36.729Z,16.16
2019-05-03T14:54:49.607Z,16.14
2019-05-03T14:57:11.449Z,16.01
2019-05-03T14:59:26.117Z,16.02
2019-05-03T15:01:51.230Z,16.01
2019-05-03T15:04:02.288Z,15.95
2019-05-03T15:06:15.349Z,15.93
2019-05-03T15:08:26.131Z,15.94
2019-05-03T15:10:37.034Z,15.93
2019-05-03T15:12:47.927Z,15.91
2019-05-03T15:14:58.963Z,15.94
2019-05-03T15:17:09.830Z,16.04
2019-05-03T15:19:20.791Z,16.10
2019-05-03T15:21:31.754Z,16.00
2019-05-03T15:23:42.654Z,16.16
2019-05-03T15:25:54.575Z,16.25
2019-05-03T15:28:05.681Z,16.20
2019-05-03T15:30:16.633Z,16.13
2019-05-03T15:32:27.578Z,15.98
2019-05-03T15:34:38.538Z,15.97
2019-05-03T15:36:49.397Z,15.89
2019-05-03T15:39:00.278Z,15.87
2019-05-03T15:41:11.251Z,15.76
2019-05-03T15:43:28.485Z,15.69
2019-05-03T15:45:48.109Z,15.70
2019-05-03T15:48:00.927Z,15.62
2019-05-03T15:50:12.304Z,15.57
2019-05-03T15:52:24.679Z,15.53
2019-05-03T15:54:35.720Z,15.52
2019-05-03T15:56:46.664Z,15.47
2019-05-03T15:58:57.551Z,15.52
2019-05-03T16:01:09.336Z,15.50
2019-05-03T16:03:20.183Z,15.42
2019-05-03T16:05:31.193Z,15.38
2019-05-03T16:07:42.087Z,15.31
2019-05-03T16:09:55.087Z,15.28
2019-05-03T16:12:05.891Z,15.28
2019-05-03T16:14:16.801Z,15.24
2019-05-03T16:16:27.640Z,15.17
2019-05-03T16:18:38.545Z,15.18
2019-05-03T16:20:49.381Z,15.07
2019-05-03T16:23:00.447Z,14.99
2019-05-03T16:25:11.632Z,14.93
2019-05-03T16:27:30.235Z,14.83
2019-05-03T16:29:41.230Z,14.76
2019-05-03T16:31:52.165Z,14.65
2019-05-03T16:34:04.308Z,14.56
2019-05-03T16:36:15.395Z,14.44
2019-05-03T16:38:26.262Z,14.40
2019-05-03T16:40:37.264Z,14.30
2019-05-03T16:42:48.209Z,14.19
2019-05-03T16:44:59.069Z,14.05
2019-05-03T16:47:09.937Z,13.92
2019-05-03T16:49:20.916Z,13.74
2019-05-03T16:51:31.916Z,13.62
2019-05-03T16:53:44.501Z,13.46
2019-05-03T16:55:55.669Z,13.36
2019-05-03T16:58:06.612Z,13.31
2019-05-03T17:00:18.084Z,13.25
2019-05-03T17:02:28.959Z,13.22
2019-05-03T17:04:45.181Z,13.26
2019-05-03T17:07:15.237Z,13.57
2019-05-03T17:09:37.405Z,13.59
2019-05-03T17:11:54.596Z,13.50
2019-05-03T17:14:06.021Z,13.35
2019-05-03T17:16:17.080Z,13.34
2019-05-03T17:18:28.261Z,13.31
2019-05-03T17:20:39.096Z,13.22
2019-05-03T17:22:50.084Z,13.26
2019-05-03T17:25:01.128Z,13.27
2019-05-03T17:27:12.104Z,13.26
2019-05-03T17:29:24.628Z,13.29
2019-05-03T17:31:35.523Z,13.28
2019-05-03T17:33:53.123Z,13.27
2019-05-03T17:35:59.293Z,13.20
2019-05-03T17:38:10.227Z,13.24
2019-05-03T17:40:23.214Z,13.22
2019-05-03T17:42:54.600Z,13.23
2019-05-03T17:45:05.935Z,13.26
2019-05-03T17:47:16.920Z,13.18
2019-05-03T17:49:27.772Z,13.15
2019-05-03T17:51:52.933Z,13.14
2019-05-03T17:54:05.699Z,13.13
2019-05-03T17:56:24.501Z,13.14
2019-05-03T17:58:44.328Z,13.13
2019-05-03T18:01:13.782Z,13.06
2019-05-03T18:03:26.579Z,13.04
2019-05-03T18:05:39.447Z,13.01
2019-05-03T18:08:01.052Z,12.97
2019-05-03T18:10:12.903Z,13.01
2019-05-03T18:12:24.402Z,12.90
2019-05-03T18:14:35.471Z,12.86
2019-05-03T18:16:46.336Z,12.78
2019-05-03T18:18:57.335Z,12.63
2019-05-03T18:21:08.208Z,12.52
2019-05-03T18:23:19.216Z,12.50
2019-05-03T18:25:30.121Z,12.42
2019-05-03T18:27:41.121Z,12.32
2019-05-03T18:29:52.045Z,12.21
2019-05-03T18:32:03.088Z,12.11
2019-05-03T18:34:19.763Z,12.05
2019-05-03T18:36:26.918Z,11.96
2019-05-03T18:38:38.589Z,11.93
2019-05-03T18:40:49.539Z,11.91
2019-05-03T18:43:04.431Z,11.82
2019-05-03T18:45:34.788Z,11.71
2019-05-03T18:47:45.860Z,11.57
2019-05-03T18:49:56.767Z,11.51
2019-05-03T18:52:07.798Z,11.44
2019-05-03T18:54:18.786Z,11.34
2019-05-03T18:56:29.750Z,11.26
2019-05-03T18:58:40.820Z,11.19
2019-05-03T19:00:51.944Z,11.10
2019-05-03T19:03:02.906Z,11.10
2019-05-03T19:05:15.267Z,11.11
2019-05-03T19:07:31.058Z,11.11
2019-05-03T19:09:46.572Z,11.11
2019-05-03T19:11:59.435Z,11.05
2019-05-03T19:14:12.257Z,11.07
2019-05-03T19:16:41.618Z,11.01
2019-05-03T19:18:52.644Z,10.93
2019-05-03T19:21:04.667Z,10.82
2019-05-03T19:23:15.559Z,10.73
2019-05-03T19:25:28.419Z,10.67
2019-05-03T19:27:39.281Z,10.61
2019-05-03T19:29:50.129Z,10.61
2019-05-03T19:32:01.279Z,10.52
2019-05-03T19:34:12.237Z,10.49
2019-05-03T19:36:23.228Z,10.45
2019-05-03T19:38:35.167Z,10.42
2019-05-03T19:40:46.236Z,10.39
2019-05-03T19:42:59.022Z,10.31
2019-05-03T19:45:10.447Z,10.27
2019-05-03T19:47:21.321Z,10.23
2019-05-03T19:49:32.211Z,10.17
2019-05-03T19:51:45.046Z,10.15
2019-05-03T19:53:56.087Z,10.15
2019-05-03T19:56:07.171Z,10.17
2019-05-03T19:58:18.145Z,10.17
2019-05-03T20:00:31.042Z,10.23
2019-05-03T20:02:45.415Z,10.26
2019-05-03T20:05:14.978Z,10.32
2019-05-03T20:07:27.960Z,10.37
2019-05-03T20:09:38.907Z,10.28
2019-05-03T20:11:49.895Z,10.23
2019-05-03T20:14:00.883Z,10.22
2019-05-03T20:16:12.073Z,10.19
2019-05-03T20:18:22.911Z,10.08
2019-05-03T20:20:33.781Z,10.10
2019-05-03T20:22:45.102Z,10.10
2019-05-03T20:24:57.541Z,10.11
2019-05-03T20:27:08.542Z,10.12
2019-05-03T20:29:19.416Z,10.13
2019-05-03T20:31:30.463Z,10.12
2019-05-03T20:33:41.334Z,10.13
2019-05-03T20:35:54.326Z,10.12
2019-05-03T20:38:05.088Z,10.10
2019-05-03T20:40:16.190Z,10.08
2019-05-03T20:42:45.692Z,10.07
2019-05-03T20:44:58.474Z,10.11
2019-05-03T20:47:14.923Z,10.12
2019-05-03T20:49:25.983Z,10.11
2019-05-03T20:51:36.943Z,10.13
2019-05-03T20:53:47.839Z,10.12
2019-05-03T20:55:58.784Z,10.05
2019-05-03T20:58:11.499Z,10.02
2019-05-03T21:00:25.608Z,10.04
2019-05-03T21:02:36.916Z,10.05
2019-05-03T21:04:47.773Z,10.08
2019-05-03T21:06:58.738Z,10.06
2019-05-03T21:09:09.599Z,10.11
2019-05-03T21:11:20.475Z,10.14
2019-05-03T21:13:39.896Z,10.18
2019-05-03T21:15:46.023Z,10.14
2019-05-03T21:18:04.992Z,10.13
2019-05-03T21:20:35.930Z,10.16
2019-05-03T21:22:46.979Z,10.20
2019-05-03T21:25:02.521Z,10.18
2019-05-03T21:27:13.449Z,10.12
2019-05-03T21:29:24.320Z,10.09
2019-05-03T21:31:35.324Z,10.11
2019-05-03T21:33:46.340Z,10.08
2019-05-03T21:35:57.283Z,10.07
2019-05-03T21:38:08.134Z,10.11
2019-05-03T21:40:19.022Z,10.14
2019-05-03T21:42:30.000Z,10.17
2019-05-03T21:44:41.075Z,10.23
2019-05-03T21:46:51.925Z,10.26
2019-05-03T21:49:16.934Z,10.28
2019-05-03T21:51:27.827Z,10.28
2019-05-03T21:53:38.687Z,10.23
2019-05-03T21:55:49.550Z,10.20
2019-05-03T21:58:00.394Z,10.22
2019-05-03T22:00:14.590Z,10.22
2019-05-03T22:02:25.537Z,10.23
2019-05-03T22:04:36.403Z,10.24
2019-05-03T22:06:47.360Z,10.24
2019-05-03T22:08:58.516Z,10.24
2019-05-03T22:11:09.365Z,10.26
2019-05-03T22:13:20.334Z,10.26
2019-05-03T22:15:48.185Z,10.35
2019-05-03T22:18:17.942Z,10.42
2019-05-03T22:20:35.064Z,10.41
2019-05-03T22:22:47.927Z,10.38
2019-05-03T22:25:04.750Z,10.36
2019-05-03T22:27:15.722Z,10.36
2019-05-03T22:29:26.695Z,10.37
2019-05-03T22:31:37.567Z,10.37
2019-05-03T22:33:48.443Z,10.35
2019-05-03T22:36:08.321Z,10.31
2019-05-03T22:38:12.085Z,10.26
2019-05-03T22:40:24.989Z,10.24
2019-05-03T22:42:35.811Z,10.20
2019-05-03T22:44:46.676Z,10.20
2019-05-03T22:46:57.705Z,10.17
2019-05-03T22:49:08.613Z,10.15
2019-05-03T22:51:19.504Z,10.21
2019-05-03T22:53:30.366Z,10.24
2019-05-03T22:55:41.208Z,10.23
2019-05-03T22:57:52.129Z,10.25
2019-05-03T23:00:06.406Z,10.25
2019-05-03T23:02:17.657Z,10.22
2019-05-03T23:04:28.617Z,10.15
2019-05-03T23:06:39.507Z,10.13
2019-05-03T23:08:50.352Z,10.14
2019-05-03T23:11:01.211Z,10.16
2019-05-03T23:13:12.066Z,10.09
2019-05-03T23:15:24.422Z,10.17
2019-05-03T23:17:35.574Z,10.18
2019-05-03T23:19:48.320Z,10.21
2019-05-03T23:22:06.850Z,10.25
2019-05-03T23:24:17.790Z,10.25
2019-05-03T23:26:28.628Z,10.24
2019-05-03T23:28:39.601Z,10.22
2019-05-03T23:30:50.433Z,10.21
2019-05-03T23:33:01.349Z,10.21
2019-05-03T23:35:12.467Z,10.23
2019-05-03T23:37:23.440Z,10.24
2019-05-03T23:39:34.292Z,10.23
2019-05-03T23:41:45.137Z,10.22
2019-05-03T23:43:56.004Z,10.20
2019-05-03T23:46:07.233Z,10.21
2019-05-03T23:48:18.109Z,10.21
2019-05-03T23:50:28.938Z,10.23
2019-05-03T23:52:39.838Z,10.27
2019-05-03T23:54:50.684Z,10.28
2019-05-03T23:57:03.409Z,10.30
2019-05-03T23:59:14.873Z,10.31
